createdAt,value
2022-11-08T00:02:59.992Z,5.38
2022-11-08T00:07:21.062Z,6.20
2022-11-08T00:11:41.205Z,6.25
2022-11-08T00:15:44.351Z,5.65
2022-11-08T00:19:49.451Z,5.90
2022-11-08T00:23:52.516Z,5.47
2022-11-08T00:27:55.762Z,5.60
2022-11-08T00:31:58.785Z,5.30
2022-11-08T00:36:04.174Z,5.22
2022-11-08T00:40:08.362Z,5.03
2022-11-08T00:44:11.409Z,5.35
2022-11-08T00:48:14.682Z,5.63
2022-11-08T00:52:19.485Z,5.90
2022-11-08T00:56:23.133Z,5.28
2022-11-08T01:00:26.207Z,5.45
2022-11-08T01:04:29.289Z,5.38
2022-11-08T01:08:33.960Z,5.28
2022-11-08T01:12:37.017Z,6.18
2022-11-08T01:16:40.273Z,5.22
2022-11-08T01:20:44.513Z,5.18
2022-11-08T01:24:48.990Z,5.75
2022-11-08T01:28:52.445Z,6.13
2022-11-08T01:32:55.499Z,5.53
2022-11-08T01:36:58.549Z,5.80
2022-11-08T01:41:03.434Z,5.55
2022-11-08T01:45:09.502Z,5.43
2022-11-08T01:49:38.980Z,5.82
2022-11-08T01:53:43.257Z,5.82
2022-11-08T01:57:53.323Z,5.03
2022-11-08T02:01:57.542Z,5.75
2022-11-08T02:06:01.735Z,5.80
2022-11-08T02:10:05.327Z,5.38
2022-11-08T02:14:09.906Z,5.22
2022-11-08T02:18:14.614Z,5.75
2022-11-08T02:22:23.809Z,6.25
2022-11-08T02:26:32.655Z,6.50
2022-11-08T02:30:36.105Z,6.80
2022-11-08T02:34:44.084Z,5.60
2022-11-08T02:38:50.037Z,5.57
2022-11-08T02:42:54.426Z,5.88
2022-11-08T02:46:57.528Z,5.70
2022-11-08T02:51:00.599Z,5.60
2022-11-08T02:55:03.617Z,5.80
2022-11-08T02:59:08.221Z,6.18
2022-11-08T03:03:11.471Z,6.45
2022-11-08T03:07:14.491Z,5.53
2022-11-08T03:11:17.627Z,5.22
2022-11-08T03:15:22.113Z,5.22
2022-11-08T03:19:25.157Z,5.40
2022-11-08T03:23:28.682Z,5.88
2022-11-08T03:27:31.738Z,5.78
2022-11-08T03:31:36.133Z,5.38
2022-11-08T03:35:39.243Z,5.35
2022-11-08T03:39:42.328Z,5.90
2022-11-08T03:43:45.321Z,5.55
2022-11-08T03:47:49.754Z,5.60
2022-11-08T03:51:52.809Z,5.50
2022-11-08T03:55:55.891Z,4.93
2022-11-08T03:59:58.918Z,4.45
2022-11-08T04:04:03.537Z,5.20
2022-11-08T04:08:07.181Z,4.82
2022-11-08T04:12:28.441Z,3.97
2022-11-08T04:16:32.265Z,3.75
2022-11-08T04:20:56.469Z,4.00
2022-11-08T04:24:59.668Z,5.00
2022-11-08T04:29:03.386Z,4.75
2022-11-08T04:33:07.070Z,5.85
2022-11-08T04:37:11.725Z,5.30
2022-11-08T04:41:16.496Z,5.95
2022-11-08T04:45:19.574Z,5.25
2022-11-08T04:49:22.659Z,5.88
2022-11-08T04:53:27.236Z,6.28
2022-11-08T04:57:30.278Z,5.43
2022-11-08T05:01:33.376Z,5.57
2022-11-08T05:05:36.433Z,5.90
2022-11-08T05:09:40.859Z,5.53
2022-11-08T05:13:44.333Z,5.75
2022-11-08T05:17:47.392Z,5.78
2022-11-08T05:22:21.993Z,6.03
2022-11-08T05:26:27.546Z,7.22
2022-11-08T05:30:30.657Z,7.93
2022-11-08T05:34:33.689Z,10.77
2022-11-08T05:38:37.373Z,8.95
2022-11-08T05:42:41.775Z,8.00
2022-11-08T05:46:45.000Z,8.30
2022-11-08T05:50:49.173Z,7.22
2022-11-08T05:54:53.397Z,8.18
2022-11-08T05:58:57.981Z,8.27
2022-11-08T06:03:02.883Z,8.05
2022-11-08T06:07:05.980Z,8.60
2022-11-08T06:11:11.033Z,8.73
2022-11-08T06:15:15.491Z,8.75
2022-11-08T06:19:18.795Z,8.10
2022-11-08T06:23:22.212Z,9.45
2022-11-08T06:27:28.241Z,9.15
2022-11-08T06:31:32.855Z,7.75
2022-11-08T06:35:37.383Z,10.10
2022-11-08T06:39:40.403Z,9.57
2022-11-08T06:43:43.457Z,9.63
2022-11-08T06:47:47.902Z,11.10
2022-11-08T06:51:51.060Z,10.55
2022-11-08T06:55:55.148Z,12.20
2022-11-08T06:59:58.173Z,11.55
2022-11-08T07:04:02.748Z,12.15
2022-11-08T07:08:06.401Z,12.73
2022-11-08T07:12:10.150Z,12.85
2022-11-08T07:16:13.387Z,11.43
2022-11-08T07:20:17.989Z,11.43
2022-11-08T07:24:21.014Z,12.40
2022-11-08T07:28:24.263Z,13.32
2022-11-08T07:32:27.586Z,12.55
2022-11-08T07:36:31.981Z,12.82
2022-11-08T07:40:35.502Z,13.25
2022-11-08T07:44:38.535Z,12.75
2022-11-08T07:48:41.614Z,13.55
2022-11-08T07:52:50.613Z,13.07
2022-11-08T07:56:53.663Z,13.75
2022-11-08T08:01:01.793Z,12.35
2022-11-08T08:05:05.293Z,12.02
2022-11-08T08:09:09.845Z,12.10
2022-11-08T08:13:12.959Z,11.20
2022-11-08T08:17:15.982Z,10.95
2022-11-08T08:21:19.398Z,10.13
2022-11-08T08:25:24.246Z,10.27
2022-11-08T08:29:27.499Z,9.63
2022-11-08T08:33:30.764Z,10.32
2022-11-08T08:37:33.764Z,9.60
2022-11-08T08:41:38.244Z,10.23
2022-11-08T08:45:41.947Z,9.65
2022-11-08T08:49:44.996Z,9.70
2022-11-08T08:53:47.974Z,9.85
2022-11-08T08:57:52.661Z,9.73
2022-11-08T09:01:55.715Z,9.13
2022-11-08T09:05:59.950Z,10.20
2022-11-08T09:10:03.047Z,9.75
2022-11-08T09:14:07.475Z,8.90
2022-11-08T09:18:10.675Z,9.35
2022-11-08T09:22:14.299Z,8.32
2022-11-08T09:26:17.336Z,9.45
2022-11-08T09:30:21.854Z,9.15
2022-11-08T09:34:27.027Z,9.45
2022-11-08T09:38:40.240Z,8.73
2022-11-08T09:42:59.544Z,9.80
2022-11-08T09:47:12.164Z,9.82
2022-11-08T09:51:19.403Z,9.93
2022-11-08T09:55:29.732Z,9.02
2022-11-08T09:59:40.886Z,8.90
2022-11-08T10:03:49.074Z,9.23
2022-11-08T10:07:57.016Z,10.02
2022-11-08T10:12:11.775Z,9.30
2022-11-08T10:16:26.440Z,9.10
2022-11-08T10:20:39.916Z,9.82
2022-11-08T10:24:52.841Z,9.10
2022-11-08T10:29:03.105Z,10.10
2022-11-08T10:33:17.576Z,10.15
2022-11-08T10:37:25.245Z,10.18
2022-11-08T10:41:35.106Z,10.70
2022-11-08T10:45:38.286Z,9.57
2022-11-08T10:49:43.797Z,10.68
2022-11-08T10:53:48.860Z,10.65
2022-11-08T10:57:51.923Z,11.02
2022-11-08T11:01:55.010Z,11.55
2022-11-08T11:06:03.002Z,10.57
2022-11-08T11:10:24.727Z,10.68
2022-11-08T11:14:28.012Z,10.75
2022-11-08T11:18:33.957Z,9.68
2022-11-08T11:22:37.159Z,9.20
2022-11-08T11:26:45.363Z,9.60
2022-11-08T11:31:01.028Z,10.32
2022-11-08T11:35:06.665Z,10.02
2022-11-08T11:39:17.104Z,9.98
2022-11-08T11:43:28.620Z,9.93
2022-11-08T11:47:34.661Z,9.95
2022-11-08T11:51:37.948Z,9.85
2022-11-08T11:55:53.091Z,9.10
2022-11-08T12:00:05.710Z,8.85
2022-11-08T12:04:37.710Z,9.27
2022-11-08T12:09:01.574Z,8.23
2022-11-08T12:13:16.016Z,8.95
2022-11-08T12:17:49.843Z,9.52
2022-11-08T12:22:02.986Z,9.77
2022-11-08T12:26:15.616Z,9.18
2022-11-08T12:30:21.490Z,10.30
2022-11-08T12:34:36.811Z,10.05
2022-11-08T12:38:53.932Z,9.95
2022-11-08T12:43:32.781Z,9.23
2022-11-08T12:47:42.953Z,10.23
2022-11-08T12:52:01.762Z,9.77
2022-11-08T12:56:12.518Z,9.65
2022-11-08T13:00:18.517Z,9.60
2022-11-08T13:04:30.698Z,9.95
2022-11-08T13:08:42.282Z,10.00
2022-11-08T13:13:00.690Z,9.13
2022-11-08T13:17:22.984Z,9.48
2022-11-08T13:21:39.123Z,9.85
2022-11-08T13:25:45.237Z,10.38
2022-11-08T13:29:48.328Z,9.85
2022-11-08T13:34:19.497Z,10.48
2022-11-08T13:38:38.860Z,9.77
2022-11-08T13:42:59.086Z,9.98
2022-11-08T13:47:02.173Z,9.75
2022-11-08T13:51:28.824Z,9.57
2022-11-08T13:55:48.149Z,9.27
2022-11-08T14:00:01.496Z,10.27
2022-11-08T14:04:25.244Z,10.98
2022-11-08T14:08:31.916Z,10.55
2022-11-08T14:12:44.162Z,9.80
2022-11-08T14:17:00.392Z,9.98
2022-11-08T14:21:05.008Z,9.68
2022-11-08T14:25:15.693Z,9.10
2022-11-08T14:29:19.954Z,8.88
2022-11-08T14:33:26.080Z,10.65
2022-11-08T14:37:29.504Z,9.30
2022-11-08T14:41:34.529Z,9.13
2022-11-08T14:45:44.965Z,9.45
2022-11-08T14:49:49.415Z,9.00
2022-11-08T14:53:54.028Z,10.95
2022-11-08T14:58:37.361Z,9.60
2022-11-08T15:02:41.756Z,9.35
2022-11-08T15:06:48.096Z,9.80
2022-11-08T15:10:56.926Z,9.55
2022-11-08T15:15:02.426Z,10.10
2022-11-08T15:19:21.315Z,11.00
2022-11-08T15:23:45.026Z,9.80
2022-11-08T15:27:49.088Z,9.98
2022-11-08T15:31:58.416Z,9.18
2022-11-08T15:36:11.713Z,9.02
2022-11-08T15:40:21.212Z,10.27
2022-11-08T15:44:25.867Z,9.75
2022-11-08T15:48:29.364Z,10.73
2022-11-08T15:52:32.583Z,10.90
2022-11-08T15:56:37.738Z,10.68
2022-11-08T16:00:46.794Z,10.52
2022-11-08T16:04:49.831Z,10.85
2022-11-08T16:08:52.864Z,10.15
2022-11-08T16:13:01.116Z,11.40
2022-11-08T16:17:04.256Z,9.95
2022-11-08T16:21:07.671Z,10.65
2022-11-08T16:25:10.669Z,10.80
2022-11-08T16:29:23.873Z,11.07
2022-11-08T16:33:28.726Z,12.05
2022-11-08T16:37:32.024Z,10.52
2022-11-08T16:41:40.102Z,11.18
2022-11-08T16:50:17.268Z,11.25
2022-11-08T16:54:24.080Z,11.38
2022-11-08T16:58:27.986Z,11.23
2022-11-08T17:02:35.618Z,10.68
2022-11-08T17:06:38.765Z,10.80
2022-11-08T17:10:42.092Z,11.77
2022-11-08T17:14:45.251Z,11.30
2022-11-08T17:18:52.914Z,11.45
2022-11-08T17:22:56.291Z,11.88
2022-11-08T17:26:59.574Z,11.02
2022-11-08T17:31:10.687Z,11.57
2022-11-08T17:35:15.540Z,10.50
2022-11-08T17:39:18.703Z,10.68
2022-11-08T17:43:23.543Z,11.23
2022-11-08T17:47:27.764Z,10.75
2022-11-08T17:51:32.369Z,10.38
2022-11-08T17:55:35.388Z,10.52
2022-11-08T17:59:38.462Z,9.70
2022-11-08T18:03:41.736Z,10.48
2022-11-08T18:11:59.291Z,10.15
2022-11-08T18:16:10.160Z,10.52
2022-11-08T18:20:13.549Z,9.80
2022-11-08T18:24:16.667Z,10.30
2022-11-08T18:28:21.181Z,10.18
2022-11-08T18:32:24.309Z,9.68
2022-11-08T18:36:29.073Z,9.93
2022-11-08T18:40:32.380Z,11.65
2022-11-08T18:44:36.704Z,10.23
2022-11-08T18:48:39.672Z,10.40
2022-11-08T18:52:45.342Z,10.77
2022-11-08T18:56:48.366Z,9.90
2022-11-08T19:00:54.790Z,10.07
2022-11-08T19:04:58.398Z,10.25
2022-11-08T19:09:01.452Z,11.73
2022-11-08T19:13:04.444Z,10.20
2022-11-08T19:17:09.137Z,10.55
2022-11-08T19:21:14.981Z,9.65
2022-11-08T19:25:18.717Z,10.30
2022-11-08T19:29:22.119Z,9.85
2022-11-08T19:33:27.954Z,9.38
2022-11-08T19:37:30.933Z,9.95
2022-11-08T19:41:34.105Z,10.48
2022-11-08T19:45:37.366Z,9.80
2022-11-08T19:49:41.963Z,9.65
2022-11-08T19:53:45.667Z,9.70
2022-11-08T19:57:48.903Z,10.18
2022-11-08T20:01:56.272Z,10.05
2022-11-08T20:06:06.931Z,9.02
2022-11-08T20:10:12.584Z,9.48
2022-11-08T20:14:22.626Z,10.13
2022-11-08T20:18:26.858Z,9.88
2022-11-08T20:22:44.316Z,9.68
2022-11-08T20:26:51.683Z,9.80
2022-11-08T20:31:02.377Z,10.00
2022-11-08T20:35:05.742Z,9.52
2022-11-08T20:39:12.156Z,10.13
2022-11-08T20:43:15.131Z,9.40
2022-11-08T20:47:19.128Z,9.13
2022-11-08T20:51:22.597Z,10.45
2022-11-08T20:55:27.837Z,10.82
2022-11-08T20:59:31.771Z,10.30
2022-11-08T21:03:35.777Z,11.18
2022-11-08T21:12:03.260Z,10.95
2022-11-08T21:16:28.123Z,10.73
2022-11-08T21:20:30.009Z,10.98
2022-11-08T21:24:33.046Z,10.98
2022-11-08T21:28:38.400Z,10.73
2022-11-08T21:32:41.447Z,10.40
2022-11-08T21:36:44.348Z,10.98
2022-11-08T21:40:48.630Z,11.50
2022-11-08T21:44:53.080Z,10.30
2022-11-08T21:48:57.930Z,11.02
2022-11-08T21:53:01.464Z,11.25
2022-11-08T21:57:04.581Z,10.70
2022-11-08T22:01:09.057Z,11.18
2022-11-08T22:05:12.461Z,10.73
2022-11-08T22:09:15.635Z,10.48
2022-11-08T22:13:18.739Z,11.07
2022-11-08T22:17:23.303Z,11.85
2022-11-08T22:21:43.300Z,10.30
2022-11-08T22:25:46.549Z,10.52
2022-11-08T22:29:49.476Z,10.52
2022-11-08T22:33:53.837Z,11.10
2022-11-08T22:37:56.924Z,10.00
2022-11-08T22:41:59.814Z,10.52
2022-11-08T22:46:03.332Z,10.73
2022-11-08T22:50:08.556Z,10.82
2022-11-08T22:54:11.802Z,10.75
2022-11-08T22:58:14.755Z,11.82
2022-11-08T23:02:17.879Z,12.18
2022-11-08T23:06:22.206Z,12.35
2022-11-08T23:10:25.123Z,11.90
2022-11-08T23:14:45.467Z,10.60
2022-11-08T23:19:09.198Z,10.65
2022-11-08T23:23:30.600Z,9.80
2022-11-08T23:27:50.788Z,10.63
2022-11-08T23:31:53.888Z,9.30
2022-11-08T23:36:12.271Z,10.25
2022-11-08T23:40:36.852Z,10.43
2022-11-08T23:44:39.742Z,10.05
2022-11-08T23:48:42.676Z,9.82
2022-11-08T23:52:45.569Z,10.32
2022-11-08T23:56:50.587Z,9.18
